Aérodrome :
LOGIN :

S'inscrire | Disclaimer

   EN    FR    IT 

 










Légende :    VFR   VFR Marginal   IFR   IFR Intensif   IFR Très Intensif
Visi : 
Plafond : 
>= 8 km
>= 3000ft
5 à 8 km
1000 à 3000 ft
1500m à 5 km
500 à 1000 ft
800 à 1500m
200 à 500 ft
< 800m
< 200 ft
Symboles :   Orages  Brouillard  Fortes neiges  Fortes précipitations  Vent > 20 kt
SIGMETs :   Divers  Orages  Givrage  Turbulence  Onde Orograph.  Cendres Volcan.






- Altitude de l'aérodrome : 135 ft
- Code IATA : EDI


EGPH - Edinburgh

DERNIER METAR :
  • 191120Z 06011KT 9999 SCT013 14/11 Q1027

METARs EXPIRÉS :
  • 191050Z 06009KT 9999 SCT018 14/12 Q1027
  • 191020Z 05009KT 9999 SCT013 13/11 Q1027
  • 190950Z 04008KT 9999 SCT010 13/11 Q1027
  • 190920Z 06007KT 9999 SCT017 13/11 Q1027
  • 190850Z 06006KT 9999 FEW006 OVC017 11/11 Q1027

TAF TAF EGPH
Valide du 19 à 12h jusqu'au 20 à 12h UTC


191057Z 1912/2012 06009KT 9999 FEW008 SCT020
PROB30
TEMPO 1912/1918 BKN010
TEMPO 1918/2012 BKN010
PROB30
TEMPO 1918/2010 7000 BKN006
ATIS : +44 131 339 2823



MET'MAP, la Météo Aéronautique d'un coup d'oeil ! - Copyright ORBIFLY Décembre 2007 - Disclaimer

ORBIFLY MET'MAP TEAM :

Programmation & Développement : Alexandra Zaïnal
Sur une idée originale de : Baudouin d'Aumeries
Assistance à la programmation : Marc-Olivier Méhu
Soutien technique & logistique : Manuel Goepfert

Contact : metmap@orbifly.com




SOURCES & CREDITS :

   NOAA